createdAt,value
2019-05-22T00:00:41.286Z,12.4689
2019-05-22T00:01:44.290Z,12.4588
2019-05-22T00:02:47.317Z,12.4588
2019-05-22T00:03:50.307Z,12.4689
2019-05-22T00:04:53.297Z,12.4689
2019-05-22T00:05:56.319Z,12.4890
2019-05-22T00:06:59.296Z,12.4689
2019-05-22T00:08:02.291Z,12.4689
2019-05-22T00:09:05.304Z,12.4890
2019-05-22T00:10:08.321Z,12.4991
2019-05-22T00:11:11.294Z,12.4991
2019-05-22T00:12:14.267Z,12.4991
2019-05-22T00:13:17.301Z,12.5293
2019-05-22T00:14:20.329Z,12.5293
2019-05-22T00:15:23.321Z,12.5293
2019-05-22T00:16:26.313Z,12.5293
2019-05-22T00:17:29.296Z,12.5293
2019-05-22T00:18:32.328Z,12.4991
2019-05-22T00:19:35.304Z,12.4991
2019-05-22T00:20:38.445Z,12.4991
2019-05-22T00:21:41.280Z,12.4890
2019-05-22T00:22:44.316Z,12.4689
2019-05-22T00:23:47.291Z,12.4689
2019-05-22T00:24:50.321Z,12.4689
2019-05-22T00:25:53.323Z,12.4689
2019-05-22T00:26:56.311Z,12.4588
2019-05-22T00:27:59.279Z,12.4588
2019-05-22T00:29:02.349Z,12.4588
2019-05-22T00:30:05.332Z,12.4487
2019-05-22T00:31:08.360Z,12.4588
2019-05-22T00:32:11.298Z,12.4286
2019-05-22T00:33:14.287Z,12.4286
2019-05-22T00:34:17.278Z,12.4185
2019-05-22T00:35:20.305Z,12.4185
2019-05-22T00:36:23.362Z,12.3984
2019-05-22T00:37:26.286Z,12.3984
2019-05-22T00:38:28.324Z,12.3984
2019-05-22T00:39:31.296Z,12.3984
2019-05-22T00:40:34.302Z,12.3984
2019-05-22T00:41:37.295Z,12.3984
2019-05-22T00:42:40.314Z,12.3682
2019-05-22T00:43:43.338Z,12.3581
2019-05-22T00:44:46.300Z,12.3480
2019-05-22T00:45:49.327Z,12.3480
2019-05-22T00:46:52.323Z,12.3178
2019-05-22T00:47:55.283Z,12.3178
2019-05-22T00:48:58.283Z,12.3178
2019-05-22T00:50:00.281Z,12.3178
2019-05-22T00:51:03.301Z,12.3178
2019-05-22T00:52:06.330Z,12.3480
2019-05-22T00:53:09.310Z,12.3480
2019-05-22T00:54:12.288Z,12.3581
2019-05-22T00:55:15.333Z,12.3480
2019-05-22T00:56:18.297Z,12.3581
2019-05-22T00:57:21.331Z,12.3581
2019-05-22T00:58:24.311Z,12.3682
2019-05-22T00:59:26.283Z,12.3883
2019-05-22T01:00:29.307Z,12.3883
2019-05-22T01:01:32.305Z,12.3984
2019-05-22T01:02:35.350Z,12.3883
2019-05-22T01:03:38.305Z,12.3883
2019-05-22T01:04:41.302Z,12.3883
2019-05-22T01:05:44.286Z,12.3883
2019-05-22T01:06:47.272Z,12.3883
2019-05-22T01:07:50.336Z,12.3984
2019-05-22T01:08:53.249Z,12.4286
2019-05-22T01:09:56.347Z,12.4185
2019-05-22T01:10:59.290Z,12.4185
2019-05-22T01:12:02.538Z,12.4286
2019-05-22T01:13:06.302Z,12.4286
2019-05-22T01:14:09.304Z,12.4286
2019-05-22T01:15:12.290Z,12.4185
2019-05-22T01:16:15.292Z,12.4286
2019-05-22T01:17:18.322Z,12.4286
2019-05-22T01:18:20.321Z,12.4185
2019-05-22T01:19:22.474Z,12.4286
2019-05-22T01:20:25.302Z,12.4286
2019-05-22T01:21:28.321Z,12.4286
2019-05-22T01:22:31.292Z,12.4286
2019-05-22T01:23:34.353Z,12.3984
2019-05-22T01:24:37.297Z,12.4185
2019-05-22T01:25:40.288Z,12.4185
2019-05-22T01:26:43.304Z,12.3984
2019-05-22T01:27:46.282Z,12.4286
2019-05-22T01:28:49.369Z,12.4286
2019-05-22T01:29:54.275Z,12.4185
2019-05-22T01:30:57.279Z,12.4286
2019-05-22T01:32:00.293Z,12.4185
2019-05-22T01:33:03.364Z,12.4286
2019-05-22T01:34:06.296Z,12.4185
2019-05-22T01:35:09.300Z,12.4185
2019-05-22T01:36:12.293Z,12.4185
2019-05-22T01:37:15.289Z,12.4286
2019-05-22T01:38:18.291Z,12.4185
2019-05-22T01:39:21.304Z,12.4185
2019-05-22T01:40:24.336Z,12.4286
2019-05-22T01:41:27.307Z,12.3984
2019-05-22T01:42:30.327Z,12.4185
2019-05-22T01:43:32.273Z,12.4286
2019-05-22T01:44:35.308Z,12.4286
2019-05-22T01:45:38.329Z,12.4286
2019-05-22T01:46:41.275Z,12.4185
2019-05-22T01:47:44.322Z,12.4185
2019-05-22T01:48:46.306Z,12.3984
2019-05-22T01:49:49.360Z,12.3984
2019-05-22T01:50:52.287Z,12.3883
2019-05-22T01:51:55.306Z,12.3883
2019-05-22T01:52:58.289Z,12.3682
2019-05-22T01:54:01.292Z,12.3682
2019-05-22T01:55:04.384Z,12.3682
2019-05-22T01:56:07.318Z,12.3682
2019-05-22T01:57:10.310Z,12.3883
2019-05-22T01:58:13.308Z,12.3883
2019-05-22T01:59:16.301Z,12.3883
2019-05-22T02:00:19.320Z,12.3883
2019-05-22T02:01:22.362Z,12.3984
2019-05-22T02:02:25.290Z,12.3883
2019-05-22T02:03:28.294Z,12.4185
2019-05-22T02:04:31.274Z,12.3984
2019-05-22T02:05:34.307Z,12.3984
2019-05-22T02:06:37.299Z,12.3883
2019-05-22T02:07:40.282Z,12.3883
2019-05-22T02:08:43.332Z,12.3883
2019-05-22T02:09:46.281Z,12.3883
2019-05-22T02:10:49.343Z,12.3883
2019-05-22T02:11:52.264Z,12.3682
2019-05-22T02:12:55.454Z,12.3682
2019-05-22T02:13:58.341Z,12.3581
2019-05-22T02:15:01.291Z,12.3682
2019-05-22T02:16:04.337Z,12.3581
2019-05-22T02:17:07.275Z,12.3883
2019-05-22T02:18:10.309Z,12.3883
2019-05-22T02:19:13.285Z,12.3883
2019-05-22T02:20:16.303Z,12.3984
2019-05-22T02:21:19.341Z,12.3984
2019-05-22T02:22:22.281Z,12.3984
2019-05-22T02:23:25.330Z,12.3883
2019-05-22T02:24:28.285Z,12.3682
2019-05-22T02:25:31.361Z,12.3581
2019-05-22T02:26:34.267Z,12.3480
2019-05-22T02:27:37.312Z,12.3480
2019-05-22T02:28:40.269Z,12.3178
2019-05-22T02:29:43.299Z,12.3480
2019-05-22T02:30:46.359Z,12.3581
2019-05-22T02:31:49.310Z,12.3480
2019-05-22T02:32:52.301Z,12.3178
2019-05-22T02:33:55.292Z,12.3178
2019-05-22T02:34:58.330Z,12.3480
2019-05-22T02:36:01.322Z,12.3077
2019-05-22T02:37:03.337Z,12.2876
2019-05-22T02:38:06.307Z,12.3077
2019-05-22T02:39:09.301Z,12.2775
2019-05-22T02:40:11.310Z,12.2876
2019-05-22T02:41:14.464Z,12.3077
2019-05-22T02:42:17.286Z,12.2876
2019-05-22T02:43:20.284Z,12.3077
2019-05-22T02:44:23.332Z,12.3178
2019-05-22T02:45:26.276Z,12.3178
2019-05-22T02:46:29.314Z,12.3480
2019-05-22T02:47:32.325Z,12.3480
2019-05-22T02:48:35.297Z,12.3581
2019-05-22T02:49:38.272Z,12.3480
2019-05-22T02:50:41.311Z,12.3178
2019-05-22T02:51:44.351Z,12.3178
2019-05-22T02:52:46.272Z,12.2876
2019-05-22T02:53:50.302Z,12.3077
2019-05-22T02:54:53.420Z,12.3077
2019-05-22T02:55:56.263Z,12.2876
2019-05-22T02:56:59.297Z,12.2876
2019-05-22T02:58:02.303Z,12.3077
2019-05-22T02:59:05.316Z,12.3077
2019-05-22T03:00:08.300Z,12.3077
2019-05-22T03:01:11.309Z,12.2876
2019-05-22T03:02:14.359Z,12.2775
2019-05-22T03:03:17.295Z,12.2876
2019-05-22T03:04:20.278Z,12.2775
2019-05-22T03:05:23.304Z,12.2775
2019-05-22T03:06:26.297Z,12.2675
2019-05-22T03:07:29.367Z,12.2473
2019-05-22T03:08:32.314Z,12.2372
2019-05-22T03:09:35.309Z,12.2372
2019-05-22T03:10:38.312Z,12.2372
2019-05-22T03:11:41.304Z,12.2372
2019-05-22T03:12:44.317Z,12.2473
2019-05-22T03:13:47.296Z,12.2473
2019-05-22T03:14:50.280Z,12.2675
2019-05-22T03:15:53.277Z,12.2775
2019-05-22T03:16:56.333Z,12.2775
2019-05-22T03:17:59.340Z,12.2675
2019-05-22T03:19:08.975Z,12.2675
2019-05-22T03:20:10.266Z,12.2473
2019-05-22T03:21:13.309Z,12.2473
2019-05-22T03:22:16.303Z,12.2675
2019-05-22T03:23:19.371Z,12.2675
2019-05-22T03:24:22.284Z,12.2372
2019-05-22T03:25:25.312Z,12.2473
2019-05-22T03:26:28.272Z,12.2171
2019-05-22T03:27:31.339Z,12.2372
2019-05-22T03:28:34.305Z,12.2171
2019-05-22T03:29:37.299Z,12.2372
2019-05-22T03:30:40.315Z,12.2473
2019-05-22T03:31:43.292Z,12.2473
2019-05-22T03:32:46.356Z,12.2473
2019-05-22T03:33:49.325Z,12.2473
2019-05-22T03:34:52.281Z,12.2473
2019-05-22T03:35:55.342Z,12.2675
2019-05-22T03:36:58.296Z,12.2372
2019-05-22T03:38:01.291Z,12.2070
2019-05-22T03:39:04.323Z,12.2171
2019-05-22T03:40:07.306Z,12.2171
2019-05-22T03:41:10.296Z,12.1970
2019-05-22T03:42:13.298Z,12.1970
2019-05-22T03:43:16.278Z,12.1970
2019-05-22T03:44:19.347Z,12.1970
2019-05-22T03:45:22.295Z,12.1768
2019-05-22T03:46:25.295Z,12.1970
2019-05-22T03:47:27.293Z,12.1970
2019-05-22T03:48:30.266Z,12.1970
2019-05-22T03:49:33.362Z,12.1970
2019-05-22T03:50:36.281Z,12.1768
2019-05-22T03:51:39.307Z,12.1768
2019-05-22T03:52:42.346Z,12.1466
2019-05-22T03:53:45.306Z,12.1466
2019-05-22T03:54:48.460Z,12.1265
2019-05-22T03:55:51.290Z,12.1466
2019-05-22T03:56:53.304Z,12.1265
2019-05-22T03:57:56.279Z,12.1265
2019-05-22T03:58:59.301Z,12.1667
2019-05-22T04:00:02.396Z,12.1667
2019-05-22T04:01:05.320Z,12.1667
2019-05-22T04:02:08.307Z,12.1768
2019-05-22T04:03:11.270Z,12.1970
2019-05-22T04:04:14.309Z,12.1768
2019-05-22T04:05:17.308Z,12.1768
2019-05-22T04:06:20.297Z,12.1768
2019-05-22T04:07:22.287Z,12.1667
2019-05-22T04:08:25.308Z,12.1667
2019-05-22T04:09:28.308Z,12.1667
2019-05-22T04:10:31.345Z,12.1768
2019-05-22T04:11:34.293Z,12.1768
2019-05-22T04:12:37.276Z,12.1667
2019-05-22T04:13:40.344Z,12.1667
2019-05-22T04:14:43.289Z,12.1466
2019-05-22T04:15:46.345Z,12.1466
2019-05-22T04:16:49.294Z,12.1466
2019-05-22T04:17:52.330Z,12.1667
2019-05-22T04:18:54.270Z,12.1667
2019-05-22T04:19:57.349Z,12.1667
2019-05-22T04:21:00.316Z,12.1667
2019-05-22T04:22:03.293Z,12.1768
2019-05-22T04:23:06.305Z,12.1970
2019-05-22T04:24:09.259Z,12.1970
2019-05-22T04:25:12.302Z,12.1970
2019-05-22T04:26:15.293Z,12.1970
2019-05-22T04:27:18.334Z,12.1970
2019-05-22T04:28:21.294Z,12.1768
2019-05-22T04:29:24.325Z,12.1970
2019-05-22T04:30:27.301Z,12.1970
2019-05-22T04:31:29.340Z,12.1970
2019-05-22T04:32:32.310Z,12.1970
2019-05-22T04:33:34.295Z,12.1768
2019-05-22T04:34:37.315Z,12.1768
2019-05-22T04:35:40.279Z,12.1768
2019-05-22T04:36:43.374Z,12.1970
2019-05-22T04:37:46.298Z,12.1970
2019-05-22T04:38:49.329Z,12.1970
2019-05-22T04:39:52.302Z,12.2070
2019-05-22T04:40:55.308Z,12.2070
2019-05-22T04:41:58.417Z,12.1970
2019-05-22T04:43:01.309Z,12.2070
2019-05-22T04:44:04.317Z,12.1970
2019-05-22T04:45:07.316Z,12.1970
2019-05-22T04:46:10.314Z,12.1970
2019-05-22T04:47:13.312Z,12.1970
2019-05-22T04:48:16.314Z,12.1970
2019-05-22T04:49:19.307Z,12.1768
2019-05-22T04:50:22.305Z,12.1667
2019-05-22T04:51:25.324Z,12.1466
2019-05-22T04:52:28.321Z,12.1466
2019-05-22T04:53:31.323Z,12.1667
2019-05-22T04:54:34.310Z,12.1768
2019-05-22T04:55:37.303Z,12.1768
2019-05-22T04:56:40.310Z,12.1667
2019-05-22T04:57:43.303Z,12.1667
2019-05-22T04:58:46.324Z,12.1466
2019-05-22T04:59:49.287Z,12.1164
2019-05-22T05:00:52.327Z,12.1466
2019-05-22T05:01:55.310Z,12.1265
2019-05-22T05:02:58.311Z,12.1265
2019-05-22T05:04:01.278Z,12.1466
2019-05-22T05:05:04.318Z,12.1667
2019-05-22T05:06:07.294Z,12.1466
2019-05-22T05:07:10.350Z,12.1466
2019-05-22T05:08:13.317Z,12.1466
2019-05-22T05:09:16.318Z,12.1466
2019-05-22T05:10:19.289Z,12.1667
2019-05-22T05:11:22.284Z,12.1466
2019-05-22T05:12:25.350Z,12.1466
2019-05-22T05:13:28.305Z,12.1667
2019-05-22T05:14:33.339Z,12.1466
2019-05-22T05:15:38.275Z,12.1265
2019-05-22T05:16:41.290Z,12.1466
2019-05-22T05:17:44.315Z,12.1265
2019-05-22T05:18:47.344Z,12.1667
2019-05-22T05:19:50.342Z,12.1667
2019-05-22T05:20:53.315Z,12.1667
2019-05-22T05:21:56.327Z,12.1667
2019-05-22T05:22:58.312Z,12.1667
2019-05-22T05:24:01.304Z,12.1768
2019-05-22T05:25:04.308Z,12.1768
2019-05-22T05:26:07.329Z,12.1768
2019-05-22T05:27:10.305Z,12.1970
2019-05-22T05:28:13.334Z,12.1970
2019-05-22T05:29:16.268Z,12.1970
2019-05-22T05:30:19.293Z,12.1970
2019-05-22T05:31:22.294Z,12.2070
2019-05-22T05:32:25.314Z,12.1970
2019-05-22T05:33:28.362Z,12.1970
2019-05-22T05:34:31.290Z,12.2070
2019-05-22T05:35:34.319Z,12.2070
2019-05-22T05:36:37.272Z,12.2171
2019-05-22T05:37:40.306Z,12.2070
2019-05-22T05:38:43.343Z,12.2070
2019-05-22T05:39:46.341Z,12.2171
2019-05-22T05:40:49.487Z,12.2070
2019-05-22T05:41:52.291Z,12.1970
2019-05-22T05:42:55.328Z,12.1667
2019-05-22T05:43:58.309Z,12.1768
2019-05-22T05:45:01.312Z,12.1466
2019-05-22T05:46:04.320Z,12.1265
2019-05-22T05:47:07.325Z,12.1265
2019-05-22T05:48:10.345Z,12.1466
2019-05-22T05:49:13.368Z,12.1466
2019-05-22T05:50:16.321Z,12.1768
2019-05-22T05:51:19.295Z,12.1667
2019-05-22T05:52:22.340Z,12.1667
2019-05-22T05:53:25.334Z,12.1970
2019-05-22T05:54:30.319Z,12.2171
2019-05-22T05:55:32.300Z,12.2171
2019-05-22T05:56:35.301Z,12.2372
2019-05-22T05:57:38.339Z,12.2473
2019-05-22T05:58:41.350Z,12.2775
2019-05-22T05:59:44.340Z,12.2775
2019-05-22T06:00:47.297Z,12.2775
2019-05-22T06:01:50.334Z,12.2675
2019-05-22T06:02:56.490Z,12.2473
2019-05-22T06:04:00.362Z,12.2675
2019-05-22T06:05:03.315Z,12.2775
2019-05-22T06:06:06.330Z,12.3178
2019-05-22T06:07:11.321Z,12.3581
2019-05-22T06:08:14.300Z,12.3984
2019-05-22T06:09:17.348Z,12.4487
2019-05-22T06:10:20.303Z,12.4689
2019-05-22T06:11:23.309Z,12.4991
2019-05-22T06:12:25.348Z,12.5394
2019-05-22T06:13:28.333Z,12.5394
2019-05-22T06:14:31.320Z,12.5394
2019-05-22T06:15:46.508Z,12.5696
2019-05-22T06:16:42.310Z,12.5696
2019-05-22T06:17:45.299Z,12.5696
2019-05-22T06:18:48.356Z,12.5998
2019-05-22T06:19:51.321Z,12.5797
2019-05-22T06:21:03.468Z,12.5797
2019-05-22T06:22:01.308Z,12.5998
2019-05-22T06:23:04.329Z,12.5797
2019-05-22T06:24:07.369Z,12.5797
2019-05-22T06:25:10.338Z,12.5293
2019-05-22T06:26:13.298Z,12.5293
2019-05-22T06:27:16.359Z,12.5293
2019-05-22T06:28:19.316Z,12.4991
2019-05-22T06:29:22.348Z,12.4991
2019-05-22T06:30:25.328Z,12.4991
2019-05-22T06:31:28.331Z,12.4991
2019-05-22T06:32:31.370Z,12.4991
2019-05-22T06:33:34.305Z,12.5293
2019-05-22T06:34:37.360Z,12.5293
2019-05-22T06:35:42.301Z,12.4890
2019-05-22T06:36:45.344Z,12.5293
2019-05-22T06:37:48.322Z,12.5394
2019-05-22T06:38:51.327Z,12.4991
2019-05-22T06:39:54.345Z,12.4991
2019-05-22T06:40:57.311Z,12.4890
2019-05-22T06:42:00.328Z,12.4991
2019-05-22T06:43:03.315Z,12.4487
2019-05-22T06:44:06.342Z,12.4588
2019-05-22T06:45:09.378Z,12.4991
2019-05-22T06:46:12.314Z,12.5394
2019-05-22T06:47:15.310Z,12.5696
2019-05-22T06:48:18.301Z,12.5494
2019-05-22T06:49:21.305Z,12.5696
2019-05-22T06:50:24.334Z,12.5494
2019-05-22T06:51:27.313Z,12.5998
2019-05-22T06:52:30.296Z,12.6099
2019-05-22T06:53:33.303Z,12.6199
2019-05-22T06:54:36.315Z,12.6401
2019-05-22T06:55:39.360Z,12.6501
2019-05-22T06:56:42.313Z,12.6703
2019-05-22T06:57:45.301Z,12.6703
2019-05-22T06:58:48.332Z,12.6401
2019-05-22T07:00:11.657Z,12.6199
2019-05-22T07:00:59.341Z,12.5998
2019-05-22T07:02:02.325Z,12.5998
2019-05-22T07:03:05.302Z,12.5797
2019-05-22T07:04:08.337Z,12.5696
2019-05-22T07:05:11.337Z,12.5696
2019-05-22T07:06:14.297Z,12.4991
2019-05-22T07:07:17.330Z,12.4890
2019-05-22T07:08:20.330Z,12.5293
2019-05-22T07:09:23.321Z,12.5293
2019-05-22T07:10:26.361Z,12.5394
2019-05-22T07:11:29.305Z,12.5494
2019-05-22T07:12:32.294Z,12.5394
2019-05-22T07:13:35.320Z,12.5696
2019-05-22T07:14:38.361Z,12.5797
2019-05-22T07:15:41.317Z,12.5998
2019-05-22T07:16:44.324Z,12.6401
2019-05-22T07:17:47.313Z,12.6401
2019-05-22T07:18:50.327Z,12.6099
2019-05-22T07:19:53.320Z,12.5797
2019-05-22T07:20:55.326Z,12.5797
2019-05-22T07:21:58.338Z,12.5696
2019-05-22T07:23:01.292Z,12.5394
2019-05-22T07:24:04.303Z,12.5696
2019-05-22T07:25:07.324Z,12.5494
2019-05-22T07:26:10.319Z,12.5394
2019-05-22T07:27:13.307Z,12.5394
2019-05-22T07:28:16.319Z,12.5293
2019-05-22T07:29:19.321Z,12.5494
2019-05-22T07:30:22.349Z,12.5696
2019-05-22T07:31:25.336Z,12.5696
2019-05-22T07:32:30.848Z,12.5696
2019-05-22T07:33:34.329Z,12.5696
2019-05-22T07:34:36.360Z,12.6099
2019-05-22T07:36:07.564Z,12.6199
2019-05-22T07:36:47.318Z,12.6501
2019-05-22T07:37:50.393Z,12.6703
2019-05-22T07:38:53.270Z,12.6804
2019-05-22T07:39:56.367Z,12.6703
2019-05-22T07:40:59.297Z,12.6501
2019-05-22T07:42:02.334Z,12.6703
2019-05-22T07:43:05.374Z,12.6501
2019-05-22T07:44:08.287Z,12.6501
2019-05-22T07:45:11.341Z,12.6703
2019-05-22T07:46:14.304Z,12.6804
2019-05-22T07:47:17.343Z,12.7307
2019-05-22T07:48:19.323Z,12.7811
2019-05-22T07:49:22.339Z,12.8516
2019-05-22T07:50:25.316Z,12.8717
2019-05-22T07:51:28.315Z,12.9120
2019-05-22T07:52:31.272Z,12.9422
2019-05-22T07:53:34.308Z,12.9523
2019-05-22T07:54:37.338Z,12.9825
2019-05-22T07:55:40.298Z,13.0026
2019-05-22T07:56:43.338Z,13.0127
2019-05-22T07:57:45.267Z,12.9825
2019-05-22T07:58:47.418Z,12.9523
2019-05-22T07:59:50.314Z,12.9422
2019-05-22T08:00:53.361Z,12.9120
2019-05-22T08:01:56.328Z,12.9019
2019-05-22T08:02:59.337Z,12.9321
2019-05-22T08:04:02.304Z,12.9523
2019-05-22T08:05:05.285Z,12.9422
2019-05-22T08:06:08.348Z,12.9724
2019-05-22T08:07:11.314Z,12.9422
2019-05-22T08:08:14.312Z,12.9422
2019-05-22T08:09:17.332Z,12.9523
2019-05-22T08:10:20.305Z,12.9523
2019-05-22T08:11:26.415Z,12.9724
2019-05-22T08:12:29.353Z,12.9523
2019-05-22T08:13:32.366Z,12.9825
2019-05-22T08:14:35.272Z,12.9523
2019-05-22T08:15:38.406Z,12.9825
2019-05-22T08:16:41.290Z,12.9825
2019-05-22T08:17:44.350Z,13.0026
2019-05-22T08:18:47.330Z,12.9724
2019-05-22T08:19:50.299Z,12.9825
2019-05-22T08:20:52.391Z,13.0026
2019-05-22T08:22:06.946Z,13.0127
2019-05-22T08:23:03.324Z,13.0429
2019-05-22T08:24:06.331Z,13.0429
2019-05-22T08:25:09.296Z,13.0530
2019-05-22T08:26:12.317Z,13.0933
2019-05-22T08:27:14.355Z,13.0933
2019-05-22T08:28:17.300Z,13.0933
2019-05-22T08:29:20.313Z,13.1235
2019-05-22T08:30:23.302Z,13.1335
2019-05-22T08:31:27.677Z,13.1335
2019-05-22T08:32:30.367Z,13.1638
2019-05-22T08:33:33.334Z,13.1638
2019-05-22T08:34:36.316Z,13.1638
2019-05-22T08:35:39.370Z,13.2040
2019-05-22T08:36:42.314Z,13.1839
2019-05-22T08:37:45.311Z,13.1940
2019-05-22T08:38:48.308Z,13.1638
2019-05-22T08:39:51.361Z,13.1638
2019-05-22T08:40:54.336Z,13.1940
2019-05-22T08:41:57.360Z,13.1940
2019-05-22T08:43:00.317Z,13.2343
2019-05-22T08:44:16.297Z,13.2544
2019-05-22T08:45:11.318Z,13.3047
2019-05-22T08:46:14.362Z,13.3652
2019-05-22T08:47:17.348Z,13.3652
2019-05-22T08:48:19.319Z,13.3853
2019-05-22T08:49:22.362Z,13.4155
2019-05-22T08:50:25.292Z,13.4558
2019-05-22T08:51:28.337Z,13.5162
2019-05-22T08:52:31.283Z,13.5364
2019-05-22T08:53:46.784Z,13.6270
2019-05-22T08:54:42.364Z,13.7177
2019-05-22T08:55:45.346Z,13.8486
2019-05-22T08:56:48.341Z,13.9594
2019-05-22T08:57:51.368Z,14.1003
2019-05-22T08:58:54.328Z,14.2313
2019-05-22T08:59:57.320Z,14.2917
2019-05-22T09:00:59.332Z,14.3622
2019-05-22T09:02:02.340Z,14.4730
2019-05-22T09:03:06.375Z,14.6240
2019-05-22T09:04:09.344Z,14.6945
2019-05-22T09:05:12.317Z,14.7852
2019-05-22T09:06:15.317Z,14.8557
2019-05-22T09:07:18.483Z,14.9161
2019-05-22T09:08:22.342Z,14.9664
2019-05-22T09:09:25.342Z,14.9966
2019-05-22T09:10:28.310Z,15.0571
2019-05-22T09:11:31.357Z,15.0571
2019-05-22T09:12:35.376Z,15.1074
2019-05-22T09:13:37.292Z,15.2383
2019-05-22T09:14:40.319Z,15.4398
2019-05-22T09:15:43.313Z,15.6512
2019-05-22T09:16:46.376Z,15.9232
2019-05-22T09:17:51.334Z,16.1951
2019-05-22T09:18:54.308Z,16.5576
2019-05-22T09:19:57.325Z,16.8900
2019-05-22T09:21:00.351Z,17.2626
2019-05-22T09:22:03.357Z,17.6453
2019-05-22T09:23:06.303Z,17.9474
2019-05-22T09:24:08.390Z,18.2596
2019-05-22T09:25:11.331Z,18.5919
2019-05-22T09:26:14.288Z,18.8940
2019-05-22T09:27:17.385Z,19.2163
2019-05-22T09:28:20.295Z,19.5386
2019-05-22T09:29:23.347Z,19.8105
2019-05-22T09:30:26.278Z,20.1126
2019-05-22T09:31:29.344Z,20.3442
2019-05-22T09:32:32.333Z,20.5759
2019-05-22T09:33:35.402Z,20.8176
2019-05-22T09:34:38.282Z,20.9283
2019-05-22T09:35:41.437Z,21.0190
2019-05-22T09:36:44.316Z,21.0492
2019-05-22T09:37:47.341Z,20.8981
2019-05-22T09:38:52.419Z,20.9283
2019-05-22T09:39:56.271Z,21.1197
2019-05-22T09:40:59.296Z,21.3614
2019-05-22T09:42:02.320Z,21.4520
2019-05-22T09:43:05.351Z,21.4520
2019-05-22T09:44:08.298Z,21.5527
2019-05-22T09:45:11.369Z,21.5125
2019-05-22T09:46:14.283Z,21.5729
2019-05-22T09:47:17.318Z,21.5225
2019-05-22T09:48:20.390Z,21.5125
2019-05-22T09:49:24.189Z,21.5527
2019-05-22T09:50:27.325Z,21.6232
2019-05-22T09:51:30.300Z,21.7239
2019-05-22T09:52:33.328Z,21.8246
2019-05-22T09:53:36.327Z,21.9757
2019-05-22T09:54:39.318Z,22.2174
2019-05-22T09:55:46.944Z,22.4490
2019-05-22T09:56:50.295Z,22.7209
2019-05-22T09:57:53.299Z,22.9324
2019-05-22T09:58:56.344Z,23.0835
2019-05-22T09:59:59.360Z,23.2346
2019-05-22T10:01:02.353Z,23.2346
2019-05-22T10:02:04.357Z,23.1741
2019-05-22T10:03:07.311Z,23.0835
2019-05-22T10:04:09.367Z,22.9929
2019-05-22T10:05:12.343Z,22.9929
2019-05-22T10:06:15.344Z,23.0331
2019-05-22T10:07:17.334Z,23.0634
2019-05-22T10:08:20.275Z,23.1238
2019-05-22T10:09:23.371Z,23.1540
2019-05-22T10:10:26.363Z,23.2748
2019-05-22T10:11:29.314Z,23.4763
2019-05-22T10:12:32.317Z,23.6877
2019-05-22T10:13:35.647Z,23.8287
2019-05-22T10:14:38.676Z,23.9294
2019-05-22T10:15:42.352Z,23.9798
2019-05-22T10:16:45.323Z,24.0201
2019-05-22T10:17:48.321Z,23.9597
2019-05-22T10:18:53.362Z,23.9093
2019-05-22T10:19:57.427Z,23.9093
2019-05-22T10:20:59.339Z,23.8690
2019-05-22T10:22:02.340Z,23.8690
2019-05-22T10:23:14.819Z,23.8589
2019-05-22T10:24:13.293Z,23.9294
2019-05-22T10:25:17.307Z,24.0302
2019-05-22T10:26:20.293Z,24.1812
2019-05-22T10:27:23.288Z,24.4028
2019-05-22T10:28:26.343Z,24.6646
2019-05-22T10:29:32.131Z,24.9063
2019-05-22T10:30:35.349Z,25.0372
2019-05-22T10:31:38.300Z,25.1782
2019-05-22T10:32:40.345Z,25.2286
2019-05-22T10:33:43.318Z,25.2286
2019-05-22T10:34:46.343Z,25.2890
2019-05-22T10:35:49.375Z,25.3796
2019-05-22T10:36:52.338Z,25.4099
2019-05-22T10:37:55.293Z,25.3595
2019-05-22T10:38:58.326Z,25.2789
2019-05-22T10:40:01.361Z,25.2185
2019-05-22T10:41:04.311Z,25.2185
2019-05-22T10:42:07.322Z,25.2588
2019-05-22T10:43:10.328Z,25.3192
2019-05-22T10:44:13.336Z,25.2789
2019-05-22T10:45:16.304Z,25.2084
2019-05-22T10:46:19.345Z,25.1279
2019-05-22T10:47:22.311Z,25.0775
2019-05-22T10:48:25.324Z,25.0674
2019-05-22T10:49:29.385Z,25.0372
2019-05-22T10:50:32.301Z,25.0574
2019-05-22T10:51:35.382Z,25.1077
2019-05-22T10:52:38.311Z,25.1682
2019-05-22T10:53:40.382Z,25.2084
2019-05-22T10:54:42.508Z,25.2286
2019-05-22T10:55:44.487Z,25.2789
2019-05-22T10:56:47.350Z,25.3293
2019-05-22T10:57:50.293Z,25.3595
2019-05-22T10:58:53.327Z,25.3998
2019-05-22T10:59:56.335Z,25.3494
2019-05-22T11:00:59.278Z,25.3595
2019-05-22T11:02:02.435Z,25.4803
2019-05-22T11:03:05.316Z,25.5508
2019-05-22T11:04:08.307Z,25.6818
2019-05-22T11:05:11.295Z,25.7321
2019-05-22T11:06:14.323Z,25.7825
2019-05-22T11:07:17.363Z,25.8127
2019-05-22T11:08:19.350Z,25.8731
2019-05-22T11:09:22.374Z,25.9033
2019-05-22T11:10:25.309Z,25.9637
2019-05-22T11:11:28.330Z,26.0040
2019-05-22T11:12:31.380Z,26.0745
2019-05-22T11:13:34.586Z,26.1551
2019-05-22T11:14:37.332Z,26.3062
2019-05-22T11:15:40.294Z,26.4673
2019-05-22T11:16:43.319Z,26.5781
2019-05-22T11:17:46.369Z,26.5881
2019-05-22T11:18:49.324Z,26.5982
2019-05-22T11:19:52.328Z,26.5982
2019-05-22T11:20:55.343Z,26.6183
2019-05-22T11:22:00.293Z,26.7291
2019-05-22T11:23:03.346Z,26.7996
2019-05-22T11:24:06.323Z,26.8903
2019-05-22T11:25:09.311Z,26.9708
2019-05-22T11:26:12.289Z,27.0212
2019-05-22T11:27:15.345Z,27.0312
2019-05-22T11:28:18.352Z,27.0816
2019-05-22T11:29:21.286Z,27.1118
2019-05-22T11:30:24.333Z,27.1219
2019-05-22T11:31:27.332Z,27.1017
2019-05-22T11:32:30.306Z,27.0212
2019-05-22T11:33:34.380Z,26.9708
2019-05-22T11:34:37.291Z,26.9205
2019-05-22T11:35:40.320Z,26.9003
2019-05-22T11:36:43.310Z,26.8500
2019-05-22T11:37:46.290Z,26.7694
2019-05-22T11:38:49.352Z,26.6284
2019-05-22T11:39:52.343Z,26.5479
2019-05-22T11:40:55.312Z,26.5176
2019-05-22T11:41:57.334Z,26.5277
2019-05-22T11:43:00.344Z,26.6183
2019-05-22T11:44:03.324Z,26.7291
2019-05-22T11:45:06.305Z,26.8399
2019-05-22T11:46:09.310Z,26.9003
2019-05-22T11:47:11.322Z,26.9910
2019-05-22T11:48:14.321Z,27.0514
2019-05-22T11:49:17.306Z,27.1420
2019-05-22T11:50:20.301Z,27.1823
2019-05-22T11:51:22.318Z,27.2629
2019-05-22T11:52:25.360Z,27.3032
2019-05-22T11:53:28.309Z,27.2931
2019-05-22T11:54:31.363Z,27.2125
2019-05-22T11:55:45.088Z,27.1219
2019-05-22T11:56:42.276Z,27.1017
2019-05-22T11:57:45.298Z,27.1017
2019-05-22T11:58:48.345Z,27.0715
2019-05-22T11:59:51.326Z,26.8500
2019-05-22T12:00:54.337Z,26.6183
2019-05-22T12:01:57.281Z,26.4371
2019-05-22T12:03:00.309Z,26.2457
2019-05-22T12:04:03.347Z,26.0645
2019-05-22T12:05:05.374Z,25.9940
2019-05-22T12:06:08.298Z,25.9637
2019-05-22T12:07:11.320Z,26.0342
2019-05-22T12:08:14.291Z,26.1047
2019-05-22T12:09:17.338Z,26.2558
2019-05-22T12:10:20.376Z,26.3968
2019-05-22T12:11:22.332Z,26.4371
2019-05-22T12:12:25.342Z,26.3766
2019-05-22T12:13:27.429Z,26.3263
2019-05-22T12:14:29.496Z,26.2558
2019-05-22T12:15:32.313Z,26.2558
2019-05-22T12:16:35.335Z,26.2759
2019-05-22T12:17:39.033Z,26.2558
2019-05-22T12:18:42.349Z,26.2457
2019-05-22T12:19:45.339Z,26.2054
2019-05-22T12:20:48.341Z,26.0947
2019-05-22T12:21:51.301Z,26.0544
2019-05-22T12:22:54.389Z,25.9839
2019-05-22T12:23:57.299Z,25.8832
2019-05-22T12:25:00.338Z,25.6818
2019-05-22T12:26:03.345Z,25.4703
2019-05-22T12:27:07.470Z,25.2588
2019-05-22T12:28:11.312Z,25.0775
2019-05-22T12:29:17.129Z,24.8761
2019-05-22T12:30:21.375Z,24.7250
2019-05-22T12:31:24.362Z,24.5740
2019-05-22T12:32:27.337Z,24.4531
2019-05-22T12:33:30.329Z,24.3524
2019-05-22T12:34:33.324Z,24.2819
2019-05-22T12:35:36.369Z,24.2316
2019-05-22T12:36:39.330Z,24.2416
2019-05-22T12:37:42.327Z,24.2819
2019-05-22T12:38:45.335Z,24.2819
2019-05-22T12:39:48.311Z,24.3524
2019-05-22T12:40:51.352Z,24.3826
2019-05-22T12:41:54.340Z,24.3927
2019-05-22T12:42:57.302Z,24.3826